sensor_id;sensor_type;location;lat;lon;timestamp;P1;durP1;ratioP1;P2;durP2;ratioP2
46090;SDS011;31826;53.572;10.170;2024-02-21T00:00:51;33.45;;;14.13;;
46090;SDS011;31826;53.572;10.170;2024-02-21T00:03:18;28.73;;;12.25;;
46090;SDS011;31826;53.572;10.170;2024-02-21T00:05:44;31.35;;;11.90;;
46090;SDS011;31826;53.572;10.170;2024-02-21T00:08:10;25.35;;;10.60;;
46090;SDS011;31826;53.572;10.170;2024-02-21T00:10:36;31.08;;;13.00;;
46090;SDS011;31826;53.572;10.170;2024-02-21T00:13:01;29.77;;;12.40;;
46090;SDS011;31826;53.572;10.170;2024-02-21T00:15:27;26.90;;;11.33;;
46090;SDS011;31826;53.572;10.170;2024-02-21T00:17:53;31.10;;;12.70;;
46090;SDS011;31826;53.572;10.170;2024-02-21T00:20:19;29.97;;;12.10;;
46090;SDS011;31826;53.572;10.170;2024-02-21T00:22:45;29.33;;;12.25;;
46090;SDS011;31826;53.572;10.170;2024-02-21T00:25:11;29.13;;;12.48;;
46090;SDS011;31826;53.572;10.170;2024-02-21T00:27:36;28.48;;;12.18;;
46090;SDS011;31826;53.572;10.170;2024-02-21T00:30:03;30.23;;;13.18;;
46090;SDS011;31826;53.572;10.170;2024-02-21T00:32:29;32.83;;;13.05;;
46090;SDS011;31826;53.572;10.170;2024-02-21T00:34:54;33.43;;;12.43;;
46090;SDS011;31826;53.572;10.170;2024-02-21T00:37:20;31.80;;;13.07;;
46090;SDS011;31826;53.572;10.170;2024-02-21T00:39:46;36.88;;;13.80;;
46090;SDS011;31826;53.572;10.170;2024-02-21T00:42:11;28.05;;;12.43;;
46090;SDS011;31826;53.572;10.170;2024-02-21T00:44:37;32.17;;;13.07;;
46090;SDS011;31826;53.572;10.170;2024-02-21T00:47:03;29.43;;;13.00;;
46090;SDS011;31826;53.572;10.170;2024-02-21T00:49:29;29.65;;;13.52;;
46090;SDS011;31826;53.572;10.170;2024-02-21T00:51:55;33.85;;;13.40;;
46090;SDS011;31826;53.572;10.170;2024-02-21T00:54:20;31.67;;;12.47;;
46090;SDS011;31826;53.572;10.170;2024-02-21T00:56:46;31.17;;;13.10;;
46090;SDS011;31826;53.572;10.170;2024-02-21T00:59:12;29.87;;;13.33;;
46090;SDS011;31826;53.572;10.170;2024-02-21T01:01:37;29.73;;;13.43;;
46090;SDS011;31826;53.572;10.170;2024-02-21T01:04:06;32.53;;;12.57;;
46090;SDS011;31826;53.572;10.170;2024-02-21T01:06:32;35.47;;;13.40;;
46090;SDS011;31826;53.572;10.170;2024-02-21T01:08:58;33.88;;;12.35;;
46090;SDS011;31826;53.572;10.170;2024-02-21T01:11:24;35.93;;;14.67;;
46090;SDS011;31826;53.572;10.170;2024-02-21T01:13:50;30.57;;;13.40;;
46090;SDS011;31826;53.572;10.170;2024-02-21T01:16:15;33.67;;;13.73;;
46090;SDS011;31826;53.572;10.170;2024-02-21T01:18:41;33.33;;;14.80;;
46090;SDS011;31826;53.572;10.170;2024-02-21T01:21:07;34.33;;;13.85;;
46090;SDS011;31826;53.572;10.170;2024-02-21T01:23:36;31.88;;;14.25;;
46090;SDS011;31826;53.572;10.170;2024-02-21T01:26:02;36.38;;;15.23;;
46090;SDS011;31826;53.572;10.170;2024-02-21T01:28:29;28.55;;;13.60;;
46090;SDS011;31826;53.572;10.170;2024-02-21T01:30:55;30.40;;;14.25;;
46090;SDS011;31826;53.572;10.170;2024-02-21T01:33:22;33.88;;;14.52;;
46090;SDS011;31826;53.572;10.170;2024-02-21T01:35:48;33.08;;;14.52;;
46090;SDS011;31826;53.572;10.170;2024-02-21T01:38:14;32.70;;;14.43;;
46090;SDS011;31826;53.572;10.170;2024-02-21T01:40:40;34.37;;;14.77;;
46090;SDS011;31826;53.572;10.170;2024-02-21T01:43:15;34.10;;;14.07;;
46090;SDS011;31826;53.572;10.170;2024-02-21T01:45:42;32.20;;;14.20;;
46090;SDS011;31826;53.572;10.170;2024-02-21T01:48:10;32.30;;;14.50;;
46090;SDS011;31826;53.572;10.170;2024-02-21T01:50:36;34.57;;;14.90;;
46090;SDS011;31826;53.572;10.170;2024-02-21T01:53:02;37.23;;;15.57;;
46090;SDS011;31826;53.572;10.170;2024-02-21T01:55:28;35.58;;;14.57;;
46090;SDS011;31826;53.572;10.170;2024-02-21T01:57:53;30.53;;;13.33;;
46090;SDS011;31826;53.572;10.170;2024-02-21T02:00:19;31.58;;;14.07;;
46090;SDS011;31826;53.572;10.170;2024-02-21T02:02:45;31.23;;;14.30;;
46090;SDS011;31826;53.572;10.170;2024-02-21T02:05:11;34.23;;;15.13;;
46090;SDS011;31826;53.572;10.170;2024-02-21T02:07:37;30.57;;;13.87;;
46090;SDS011;31826;53.572;10.170;2024-02-21T02:10:03;29.43;;;13.27;;
46090;SDS011;31826;53.572;10.170;2024-02-21T02:12:29;34.23;;;15.13;;
46090;SDS011;31826;53.572;10.170;2024-02-21T02:14:58;32.08;;;14.27;;
46090;SDS011;31826;53.572;10.170;2024-02-21T02:17:25;34.75;;;15.15;;
46090;SDS011;31826;53.572;10.170;2024-02-21T02:19:50;30.17;;;14.73;;
46090;SDS011;31826;53.572;10.170;2024-02-21T02:22:17;35.63;;;16.43;;
46090;SDS011;31826;53.572;10.170;2024-02-21T02:24:47;33.22;;;14.48;;
46090;SDS011;31826;53.572;10.170;2024-02-21T02:27:13;36.85;;;14.20;;
46090;SDS011;31826;53.572;10.170;2024-02-21T02:29:39;32.45;;;14.57;;
46090;SDS011;31826;53.572;10.170;2024-02-21T02:32:05;34.15;;;14.80;;
46090;SDS011;31826;53.572;10.170;2024-02-21T02:34:30;33.08;;;13.88;;
46090;SDS011;31826;53.572;10.170;2024-02-21T02:36:56;37.67;;;15.90;;
46090;SDS011;31826;53.572;10.170;2024-02-21T02:39:22;37.00;;;16.27;;
46090;SDS011;31826;53.572;10.170;2024-02-21T02:41:47;36.40;;;16.43;;
46090;SDS011;31826;53.572;10.170;2024-02-21T02:44:13;35.50;;;16.03;;
46090;SDS011;31826;53.572;10.170;2024-02-21T02:46:41;39.08;;;16.25;;
46090;SDS011;31826;53.572;10.170;2024-02-21T02:49:07;34.92;;;15.32;;
46090;SDS011;31826;53.572;10.170;2024-02-21T02:51:33;35.75;;;15.07;;
46090;SDS011;31826;53.572;10.170;2024-02-21T02:53:59;36.00;;;16.45;;
46090;SDS011;31826;53.572;10.170;2024-02-21T02:56:25;38.42;;;15.35;;
46090;SDS011;31826;53.572;10.170;2024-02-21T02:58:50;39.17;;;15.95;;
46090;SDS011;31826;53.572;10.170;2024-02-21T03:01:16;33.30;;;15.50;;
46090;SDS011;31826;53.572;10.170;2024-02-21T03:03:42;41.10;;;16.70;;
46090;SDS011;31826;53.572;10.170;2024-02-21T03:06:07;37.27;;;15.60;;
46090;SDS011;31826;53.572;10.170;2024-02-21T03:08:33;36.90;;;15.75;;
46090;SDS011;31826;53.572;10.170;2024-02-21T03:10:59;42.13;;;16.13;;
46090;SDS011;31826;53.572;10.170;2024-02-21T03:13:25;36.40;;;16.55;;
46090;SDS011;31826;53.572;10.170;2024-02-21T03:15:51;36.55;;;16.48;;
46090;SDS011;31826;53.572;10.170;2024-02-21T03:18:17;38.57;;;16.23;;
46090;SDS011;31826;53.572;10.170;2024-02-21T03:20:42;36.55;;;17.10;;
46090;SDS011;31826;53.572;10.170;2024-02-21T03:23:08;41.20;;;16.00;;
46090;SDS011;31826;53.572;10.170;2024-02-21T03:25:34;45.45;;;18.05;;
46090;SDS011;31826;53.572;10.170;2024-02-21T03:27:59;39.50;;;16.63;;
46090;SDS011;31826;53.572;10.170;2024-02-21T03:30:25;38.17;;;15.70;;
46090;SDS011;31826;53.572;10.170;2024-02-21T03:32:50;42.40;;;17.07;;
46090;SDS011;31826;53.572;10.170;2024-02-21T03:35:16;36.35;;;16.83;;
46090;SDS011;31826;53.572;10.170;2024-02-21T03:37:42;40.75;;;16.60;;
46090;SDS011;31826;53.572;10.170;2024-02-21T03:40:10;42.42;;;17.05;;
46090;SDS011;31826;53.572;10.170;2024-02-21T03:42:37;41.77;;;16.77;;
46090;SDS011;31826;53.572;10.170;2024-02-21T03:45:03;43.97;;;17.60;;
46090;SDS011;31826;53.572;10.170;2024-02-21T03:47:29;37.60;;;15.35;;
46090;SDS011;31826;53.572;10.170;2024-02-21T03:49:54;38.17;;;16.50;;
46090;SDS011;31826;53.572;10.170;2024-02-21T03:52:20;40.40;;;16.60;;
46090;SDS011;31826;53.572;10.170;2024-02-21T03:54:46;34.70;;;15.07;;
46090;SDS011;31826;53.572;10.170;2024-02-21T03:57:12;36.60;;;16.23;;
46090;SDS011;31826;53.572;10.170;2024-02-21T03:59:37;35.15;;;15.85;;
46090;SDS011;31826;53.572;10.170;2024-02-21T04:02:05;31.43;;;14.97;;
46090;SDS011;31826;53.572;10.170;2024-02-21T04:04:33;38.70;;;16.05;;
46090;SDS011;31826;53.572;10.170;2024-02-21T04:07:02;37.28;;;15.32;;
46090;SDS011;31826;53.572;10.170;2024-02-21T04:09:31;39.15;;;16.23;;
46090;SDS011;31826;53.572;10.170;2024-02-21T04:12:00;33.10;;;15.68;;
46090;SDS011;31826;53.572;10.170;2024-02-21T04:14:26;35.83;;;14.98;;
46090;SDS011;31826;53.572;10.170;2024-02-21T04:16:52;35.58;;;15.50;;
46090;SDS011;31826;53.572;10.170;2024-02-21T04:19:17;34.13;;;14.20;;
46090;SDS011;31826;53.572;10.170;2024-02-21T04:21:43;29.77;;;14.70;;
46090;SDS011;31826;53.572;10.170;2024-02-21T04:24:09;38.60;;;15.07;;
46090;SDS011;31826;53.572;10.170;2024-02-21T04:26:35;35.38;;;15.25;;
46090;SDS011;31826;53.572;10.170;2024-02-21T04:29:01;35.55;;;15.35;;
46090;SDS011;31826;53.572;10.170;2024-02-21T04:31:27;36.17;;;17.15;;
46090;SDS011;31826;53.572;10.170;2024-02-21T04:33:52;38.57;;;17.27;;
46090;SDS011;31826;53.572;10.170;2024-02-21T04:36:18;29.30;;;15.47;;
46090;SDS011;31826;53.572;10.170;2024-02-21T04:38:44;37.60;;;16.07;;
46090;SDS011;31826;53.572;10.170;2024-02-21T04:41:10;36.20;;;15.82;;
46090;SDS011;31826;53.572;10.170;2024-02-21T04:43:36;31.70;;;15.60;;
46090;SDS011;31826;53.572;10.170;2024-02-21T04:46:01;34.67;;;15.70;;
46090;SDS011;31826;53.572;10.170;2024-02-21T04:48:27;35.47;;;15.13;;
46090;SDS011;31826;53.572;10.170;2024-02-21T04:50:53;30.77;;;14.63;;
46090;SDS011;31826;53.572;10.170;2024-02-21T04:53:18;33.17;;;15.02;;
46090;SDS011;31826;53.572;10.170;2024-02-21T04:55:44;34.38;;;14.50;;
46090;SDS011;31826;53.572;10.170;2024-02-21T04:58:11;31.92;;;15.05;;
46090;SDS011;31826;53.572;10.170;2024-02-21T05:00:37;35.45;;;15.80;;
46090;SDS011;31826;53.572;10.170;2024-02-21T05:03:02;35.05;;;15.00;;
46090;SDS011;31826;53.572;10.170;2024-02-21T05:05:28;30.98;;;14.43;;
46090;SDS011;31826;53.572;10.170;2024-02-21T05:07:54;33.38;;;13.70;;
46090;SDS011;31826;53.572;10.170;2024-02-21T05:10:20;34.80;;;14.63;;
46090;SDS011;31826;53.572;10.170;2024-02-21T05:12:46;32.03;;;14.23;;
46090;SDS011;31826;53.572;10.170;2024-02-21T05:15:11;26.88;;;13.30;;
46090;SDS011;31826;53.572;10.170;2024-02-21T05:17:37;30.73;;;13.20;;
46090;SDS011;31826;53.572;10.170;2024-02-21T05:20:03;26.50;;;12.30;;
46090;SDS011;31826;53.572;10.170;2024-02-21T05:22:30;26.15;;;13.05;;
46090;SDS011;31826;53.572;10.170;2024-02-21T05:24:56;29.67;;;12.50;;
46090;SDS011;31826;53.572;10.170;2024-02-21T05:27:22;25.45;;;12.15;;
46090;SDS011;31826;53.572;10.170;2024-02-21T05:29:47;27.45;;;11.73;;
46090;SDS011;31826;53.572;10.170;2024-02-21T05:32:14;22.27;;;11.27;;
46090;SDS011;31826;53.572;10.170;2024-02-21T05:34:39;23.27;;;11.20;;
46090;SDS011;31826;53.572;10.170;2024-02-21T05:37:05;23.40;;;10.90;;
46090;SDS011;31826;53.572;10.170;2024-02-21T05:39:31;23.75;;;11.35;;
46090;SDS011;31826;53.572;10.170;2024-02-21T05:41:56;23.90;;;11.38;;
46090;SDS011;31826;53.572;10.170;2024-02-21T05:44:22;25.10;;;11.57;;
46090;SDS011;31826;53.572;10.170;2024-02-21T05:46:48;25.02;;;11.18;;
46090;SDS011;31826;53.572;10.170;2024-02-21T05:49:14;22.58;;;11.20;;
46090;SDS011;31826;53.572;10.170;2024-02-21T05:51:39;24.53;;;10.97;;
46090;SDS011;31826;53.572;10.170;2024-02-21T05:54:05;21.67;;;10.67;;
46090;SDS011;31826;53.572;10.170;2024-02-21T05:56:32;22.30;;;10.83;;
46090;SDS011;31826;53.572;10.170;2024-02-21T05:58:58;21.67;;;9.80;;
46090;SDS011;31826;53.572;10.170;2024-02-21T06:01:24;24.87;;;10.43;;
46090;SDS011;31826;53.572;10.170;2024-02-21T06:03:50;22.33;;;10.40;;
46090;SDS011;31826;53.572;10.170;2024-02-21T06:06:15;22.85;;;10.48;;
46090;SDS011;31826;53.572;10.170;2024-02-21T06:08:42;24.92;;;10.27;;
46090;SDS011;31826;53.572;10.170;2024-02-21T06:11:07;22.05;;;9.00;;
46090;SDS011;31826;53.572;10.170;2024-02-21T06:13:33;17.95;;;9.27;;
46090;SDS011;31826;53.572;10.170;2024-02-21T06:16:02;21.15;;;10.00;;
46090;SDS011;31826;53.572;10.170;2024-02-21T06:18:29;20.38;;;9.80;;
46090;SDS011;31826;53.572;10.170;2024-02-21T06:20:55;17.27;;;8.20;;
46090;SDS011;31826;53.572;10.170;2024-02-21T06:23:20;19.17;;;8.27;;
46090;SDS011;31826;53.572;10.170;2024-02-21T06:25:46;19.05;;;8.50;;
46090;SDS011;31826;53.572;10.170;2024-02-21T06:28:12;15.95;;;7.85;;
46090;SDS011;31826;53.572;10.170;2024-02-21T06:30:39;16.27;;;8.30;;
46090;SDS011;31826;53.572;10.170;2024-02-21T06:33:05;15.20;;;6.47;;
46090;SDS011;31826;53.572;10.170;2024-02-21T06:35:32;14.63;;;6.38;;
46090;SDS011;31826;53.572;10.170;2024-02-21T06:37:59;12.35;;;5.28;;
46090;SDS011;31826;53.572;10.170;2024-02-21T06:40:24;10.68;;;5.35;;
46090;SDS011;31826;53.572;10.170;2024-02-21T06:42:50;14.63;;;6.17;;
46090;SDS011;31826;53.572;10.170;2024-02-21T06:45:16;14.38;;;6.20;;
46090;SDS011;31826;53.572;10.170;2024-02-21T06:47:42;12.23;;;6.55;;
46090;SDS011;31826;53.572;10.170;2024-02-21T06:50:08;13.73;;;6.40;;
46090;SDS011;31826;53.572;10.170;2024-02-21T06:52:35;14.93;;;6.15;;
46090;SDS011;31826;53.572;10.170;2024-02-21T06:55:01;15.25;;;7.05;;
46090;SDS011;31826;53.572;10.170;2024-02-21T06:57:28;13.80;;;6.47;;
46090;SDS011;31826;53.572;10.170;2024-02-21T06:59:54;13.55;;;6.28;;
46090;SDS011;31826;53.572;10.170;2024-02-21T07:02:20;12.17;;;5.83;;
46090;SDS011;31826;53.572;10.170;2024-02-21T07:04:45;12.45;;;5.15;;
46090;SDS011;31826;53.572;10.170;2024-02-21T07:07:11;10.20;;;4.70;;
46090;SDS011;31826;53.572;10.170;2024-02-21T07:09:37;10.23;;;4.72;;
46090;SDS011;31826;53.572;10.170;2024-02-21T07:12:03;12.85;;;4.80;;
46090;SDS011;31826;53.572;10.170;2024-02-21T07:14:30;11.82;;;5.05;;
46090;SDS011;31826;53.572;10.170;2024-02-21T07:16:57;9.85;;;4.38;;
46090;SDS011;31826;53.572;10.170;2024-02-21T07:19:23;12.68;;;5.10;;
46090;SDS011;31826;53.572;10.170;2024-02-21T07:21:48;12.40;;;5.17;;
46090;SDS011;31826;53.572;10.170;2024-02-21T07:24:14;12.00;;;4.83;;
46090;SDS011;31826;53.572;10.170;2024-02-21T07:26:43;13.77;;;5.50;;
46090;SDS011;31826;53.572;10.170;2024-02-21T07:29:09;12.82;;;6.30;;
46090;SDS011;31826;53.572;10.170;2024-02-21T07:31:40;13.60;;;6.30;;
46090;SDS011;31826;53.572;10.170;2024-02-21T07:34:06;14.85;;;6.25;;
46090;SDS011;31826;53.572;10.170;2024-02-21T07:36:32;16.63;;;7.03;;
46090;SDS011;31826;53.572;10.170;2024-02-21T07:38:58;15.43;;;7.20;;
46090;SDS011;31826;53.572;10.170;2024-02-21T07:41:24;14.70;;;6.25;;
46090;SDS011;31826;53.572;10.170;2024-02-21T07:43:51;14.10;;;6.28;;
46090;SDS011;31826;53.572;10.170;2024-02-21T07:46:17;15.70;;;6.55;;
46090;SDS011;31826;53.572;10.170;2024-02-21T07:48:44;14.48;;;6.60;;
46090;SDS011;31826;53.572;10.170;2024-02-21T07:51:10;14.05;;;6.05;;
46090;SDS011;31826;53.572;10.170;2024-02-21T07:53:38;15.18;;;6.55;;
46090;SDS011;31826;53.572;10.170;2024-02-21T07:56:07;14.10;;;6.30;;
46090;SDS011;31826;53.572;10.170;2024-02-21T07:58:33;15.00;;;6.55;;
46090;SDS011;31826;53.572;10.170;2024-02-21T08:00:58;15.17;;;6.40;;
46090;SDS011;31826;53.572;10.170;2024-02-21T08:03:24;15.33;;;7.17;;
46090;SDS011;31826;53.572;10.170;2024-02-21T08:05:50;14.93;;;6.55;;
46090;SDS011;31826;53.572;10.170;2024-02-21T08:08:16;13.45;;;5.88;;
46090;SDS011;31826;53.572;10.170;2024-02-21T08:10:45;11.67;;;5.73;;
46090;SDS011;31826;53.572;10.170;2024-02-21T08:13:10;13.05;;;5.40;;
46090;SDS011;31826;53.572;10.170;2024-02-21T08:15:36;10.73;;;5.10;;
46090;SDS011;31826;53.572;10.170;2024-02-21T08:18:04;13.30;;;5.65;;
46090;SDS011;31826;53.572;10.170;2024-02-21T08:20:30;11.32;;;5.30;;
46090;SDS011;31826;53.572;10.170;2024-02-21T08:22:56;10.43;;;4.80;;
46090;SDS011;31826;53.572;10.170;2024-02-21T08:25:21;10.63;;;4.55;;
46090;SDS011;31826;53.572;10.170;2024-02-21T08:27:47;10.05;;;4.32;;
46090;SDS011;31826;53.572;10.170;2024-02-21T08:30:13;9.88;;;4.13;;
46090;SDS011;31826;53.572;10.170;2024-02-21T08:32:39;11.25;;;4.05;;
46090;SDS011;31826;53.572;10.170;2024-02-21T08:35:05;10.23;;;3.42;;
46090;SDS011;31826;53.572;10.170;2024-02-21T08:37:31;19.55;;;3.55;;
46090;SDS011;31826;53.572;10.170;2024-02-21T08:39:57;13.35;;;3.72;;
46090;SDS011;31826;53.572;10.170;2024-02-21T08:42:22;11.27;;;3.55;;
46090;SDS011;31826;53.572;10.170;2024-02-21T08:44:48;15.43;;;3.92;;
46090;SDS011;31826;53.572;10.170;2024-02-21T08:47:14;11.05;;;3.13;;
46090;SDS011;31826;53.572;10.170;2024-02-21T08:49:40;10.60;;;3.20;;
46090;SDS011;31826;53.572;10.170;2024-02-21T08:52:05;12.43;;;3.10;;
46090;SDS011;31826;53.572;10.170;2024-02-21T08:54:31;14.17;;;3.20;;
46090;SDS011;31826;53.572;10.170;2024-02-21T08:56:58;14.93;;;2.95;;
46090;SDS011;31826;53.572;10.170;2024-02-21T08:59:24;9.25;;;3.10;;
46090;SDS011;31826;53.572;10.170;2024-02-21T09:01:51;15.00;;;4.63;;
46090;SDS011;31826;53.572;10.170;2024-02-21T09:04:19;13.45;;;3.17;;
46090;SDS011;31826;53.572;10.170;2024-02-21T09:06:45;14.02;;;2.97;;
46090;SDS011;31826;53.572;10.170;2024-02-21T09:09:11;18.08;;;3.33;;
46090;SDS011;31826;53.572;10.170;2024-02-21T09:11:37;10.95;;;3.10;;
46090;SDS011;31826;53.572;10.170;2024-02-21T09:14:03;12.25;;;2.80;;
46090;SDS011;31826;53.572;10.170;2024-02-21T09:16:32;11.02;;;2.72;;
46090;SDS011;31826;53.572;10.170;2024-02-21T09:18:58;11.35;;;3.17;;
46090;SDS011;31826;53.572;10.170;2024-02-21T09:21:23;14.82;;;3.35;;
46090;SDS011;31826;53.572;10.170;2024-02-21T09:23:49;20.65;;;5.40;;
46090;SDS011;31826;53.572;10.170;2024-02-21T09:26:15;11.95;;;4.32;;
46090;SDS011;31826;53.572;10.170;2024-02-21T09:28:41;23.15;;;8.52;;
46090;SDS011;31826;53.572;10.170;2024-02-21T09:31:07;13.00;;;4.85;;
46090;SDS011;31826;53.572;10.170;2024-02-21T09:33:33;14.80;;;3.70;;
46090;SDS011;31826;53.572;10.170;2024-02-21T09:35:58;24.58;;;9.20;;
46090;SDS011;31826;53.572;10.170;2024-02-21T09:38:24;19.85;;;8.00;;
46090;SDS011;31826;53.572;10.170;2024-02-21T09:41:00;11.55;;;2.83;;
46090;SDS011;31826;53.572;10.170;2024-02-21T09:43:53;17.85;;;5.88;;
46090;SDS011;31826;53.572;10.170;2024-02-21T09:46:19;13.95;;;4.28;;
46090;SDS011;31826;53.572;10.170;2024-02-21T09:51:26;9.82;;;2.88;;
46090;SDS011;31826;53.572;10.170;2024-02-21T09:53:54;9.70;;;3.13;;
46090;SDS011;31826;53.572;10.170;2024-02-21T09:56:21;27.83;;;12.10;;
46090;SDS011;31826;53.572;10.170;2024-02-21T09:58:47;14.18;;;4.70;;
46090;SDS011;31826;53.572;10.170;2024-02-21T10:01:12;14.00;;;5.03;;
46090;SDS011;31826;53.572;10.170;2024-02-21T10:03:38;11.70;;;4.13;;
46090;SDS011;31826;53.572;10.170;2024-02-21T10:06:04;8.48;;;3.20;;
46090;SDS011;31826;53.572;10.170;2024-02-21T10:08:30;13.50;;;4.95;;
46090;SDS011;31826;53.572;10.170;2024-02-21T10:10:56;15.55;;;5.85;;
46090;SDS011;31826;53.572;10.170;2024-02-21T10:13:26;14.52;;;3.75;;
46090;SDS011;31826;53.572;10.170;2024-02-21T10:16:02;14.13;;;6.47;;
46090;SDS011;31826;53.572;10.170;2024-02-21T10:18:32;10.05;;;3.92;;
46090;SDS011;31826;53.572;10.170;2024-02-21T10:21:05;33.90;;;16.07;;
46090;SDS011;31826;53.572;10.170;2024-02-21T10:23:41;13.75;;;5.10;;
46090;SDS011;31826;53.572;10.170;2024-02-21T10:26:11;16.17;;;6.95;;
46090;SDS011;31826;53.572;10.170;2024-02-21T10:28:37;10.68;;;4.65;;
46090;SDS011;31826;53.572;10.170;2024-02-21T10:31:08;11.55;;;5.40;;
46090;SDS011;31826;53.572;10.170;2024-02-21T10:33:35;15.57;;;6.53;;
46090;SDS011;31826;53.572;10.170;2024-02-21T10:36:10;24.97;;;10.20;;
46090;SDS011;31826;53.572;10.170;2024-02-21T10:38:37;17.53;;;7.83;;
46090;SDS011;31826;53.572;10.170;2024-02-21T10:41:04;20.08;;;9.20;;
46090;SDS011;31826;53.572;10.170;2024-02-21T10:43:31;18.73;;;8.70;;
46090;SDS011;31826;53.572;10.170;2024-02-21T10:46:11;21.10;;;9.07;;
46090;SDS011;31826;53.572;10.170;2024-02-21T10:48:46;21.42;;;9.32;;
46090;SDS011;31826;53.572;10.170;2024-02-21T10:51:16;21.90;;;9.52;;
46090;SDS011;31826;53.572;10.170;2024-02-21T10:53:44;23.17;;;9.65;;
46090;SDS011;31826;53.572;10.170;2024-02-21T10:56:30;25.90;;;10.87;;
46090;SDS011;31826;53.572;10.170;2024-02-21T10:59:00;26.73;;;11.38;;
46090;SDS011;31826;53.572;10.170;2024-02-21T11:01:28;22.90;;;10.77;;
46090;SDS011;31826;53.572;10.170;2024-02-21T11:03:57;23.10;;;10.88;;
46090;SDS011;31826;53.572;10.170;2024-02-21T11:06:26;25.58;;;11.38;;
46090;SDS011;31826;53.572;10.170;2024-02-21T11:09:00;25.67;;;12.85;;
46090;SDS011;31826;53.572;10.170;2024-02-21T11:11:26;27.58;;;12.40;;
46090;SDS011;31826;53.572;10.170;2024-02-21T11:13:52;26.95;;;11.70;;
46090;SDS011;31826;53.572;10.170;2024-02-21T11:16:21;27.42;;;11.65;;
46090;SDS011;31826;53.572;10.170;2024-02-21T11:18:48;28.27;;;11.90;;
46090;SDS011;31826;53.572;10.170;2024-02-21T11:21:14;23.77;;;11.13;;
46090;SDS011;31826;53.572;10.170;2024-02-21T11:23:40;23.52;;;10.82;;
46090;SDS011;31826;53.572;10.170;2024-02-21T11:26:06;27.88;;;11.60;;
46090;SDS011;31826;53.572;10.170;2024-02-21T11:28:44;26.38;;;11.27;;
46090;SDS011;31826;53.572;10.170;2024-02-21T11:31:13;25.20;;;10.57;;
46090;SDS011;31826;53.572;10.170;2024-02-21T11:33:42;24.20;;;9.93;;
46090;SDS011;31826;53.572;10.170;2024-02-21T11:36:11;25.17;;;10.57;;
46090;SDS011;31826;53.572;10.170;2024-02-21T11:38:51;23.60;;;9.85;;
46090;SDS011;31826;53.572;10.170;2024-02-21T11:41:20;24.42;;;10.55;;
46090;SDS011;31826;53.572;10.170;2024-02-21T11:43:48;20.90;;;9.10;;
46090;SDS011;31826;53.572;10.170;2024-02-21T11:46:14;25.10;;;9.70;;
46090;SDS011;31826;53.572;10.170;2024-02-21T11:48:41;20.35;;;9.00;;
46090;SDS011;31826;53.572;10.170;2024-02-21T11:51:09;22.05;;;9.52;;
46090;SDS011;31826;53.572;10.170;2024-02-21T11:53:35;21.63;;;9.25;;
46090;SDS011;31826;53.572;10.170;2024-02-21T11:56:01;19.88;;;8.38;;
46090;SDS011;31826;53.572;10.170;2024-02-21T11:58:28;20.92;;;8.43;;
46090;SDS011;31826;53.572;10.170;2024-02-21T12:00:55;21.35;;;8.13;;
46090;SDS011;31826;53.572;10.170;2024-02-21T12:03:21;17.23;;;7.60;;
46090;SDS011;31826;53.572;10.170;2024-02-21T12:05:47;17.08;;;7.22;;
46090;SDS011;31826;53.572;10.170;2024-02-21T12:08:13;19.60;;;8.10;;
46090;SDS011;31826;53.572;10.170;2024-02-21T12:10:38;18.20;;;7.60;;
46090;SDS011;31826;53.572;10.170;2024-02-21T12:13:08;19.87;;;7.30;;
46090;SDS011;31826;53.572;10.170;2024-02-21T12:15:34;19.30;;;7.63;;
46090;SDS011;31826;53.572;10.170;2024-02-21T12:18:00;19.03;;;7.73;;
46090;SDS011;31826;53.572;10.170;2024-02-21T12:20:26;21.25;;;7.93;;
46090;SDS011;31826;53.572;10.170;2024-02-21T12:22:52;18.63;;;7.60;;
46090;SDS011;31826;53.572;10.170;2024-02-21T12:25:19;18.67;;;7.20;;
46090;SDS011;31826;53.572;10.170;2024-02-21T12:27:51;16.30;;;7.40;;
46090;SDS011;31826;53.572;10.170;2024-02-21T12:30:17;22.17;;;8.27;;
46090;SDS011;31826;53.572;10.170;2024-02-21T12:32:44;16.40;;;6.90;;
46090;SDS011;31826;53.572;10.170;2024-02-21T12:35:11;14.53;;;6.80;;
46090;SDS011;31826;53.572;10.170;2024-02-21T12:37:36;15.98;;;6.80;;
46090;SDS011;31826;53.572;10.170;2024-02-21T12:40:04;17.27;;;7.40;;
46090;SDS011;31826;53.572;10.170;2024-02-21T12:42:33;15.98;;;6.85;;
46090;SDS011;31826;53.572;10.170;2024-02-21T12:45:00;18.08;;;7.30;;
46090;SDS011;31826;53.572;10.170;2024-02-21T12:47:28;18.35;;;7.10;;
46090;SDS011;31826;53.572;10.170;2024-02-21T12:49:53;16.03;;;7.23;;
46090;SDS011;31826;53.572;10.170;2024-02-21T12:52:19;19.17;;;7.43;;
46090;SDS011;31826;53.572;10.170;2024-02-21T12:54:45;18.85;;;8.30;;
46090;SDS011;31826;53.572;10.170;2024-02-21T12:57:11;19.97;;;8.87;;
46090;SDS011;31826;53.572;10.170;2024-02-21T12:59:36;21.50;;;9.47;;
46090;SDS011;31826;53.572;10.170;2024-02-21T13:02:02;23.57;;;9.50;;
46090;SDS011;31826;53.572;10.170;2024-02-21T13:04:28;21.77;;;8.25;;
46090;SDS011;31826;53.572;10.170;2024-02-21T13:06:54;22.20;;;9.87;;
46090;SDS011;31826;53.572;10.170;2024-02-21T13:09:20;24.15;;;8.93;;
46090;SDS011;31826;53.572;10.170;2024-02-21T13:11:46;20.95;;;9.50;;
46090;SDS011;31826;53.572;10.170;2024-02-21T13:14:12;25.15;;;9.40;;
46090;SDS011;31826;53.572;10.170;2024-02-21T13:16:38;26.10;;;10.83;;
46090;SDS011;31826;53.572;10.170;2024-02-21T13:19:06;24.00;;;10.67;;
46090;SDS011;31826;53.572;10.170;2024-02-21T13:21:35;23.70;;;9.63;;
46090;SDS011;31826;53.572;10.170;2024-02-21T13:24:01;23.40;;;9.52;;
46090;SDS011;31826;53.572;10.170;2024-02-21T13:26:27;24.08;;;9.43;;
46090;SDS011;31826;53.572;10.170;2024-02-21T13:28:53;24.67;;;9.68;;
46090;SDS011;31826;53.572;10.170;2024-02-21T13:31:19;24.30;;;9.70;;
46090;SDS011;31826;53.572;10.170;2024-02-21T13:33:46;25.02;;;9.80;;
46090;SDS011;31826;53.572;10.170;2024-02-21T13:36:11;26.98;;;10.60;;
46090;SDS011;31826;53.572;10.170;2024-02-21T13:38:37;22.25;;;10.48;;
46090;SDS011;31826;53.572;10.170;2024-02-21T13:41:04;22.08;;;9.73;;
46090;SDS011;31826;53.572;10.170;2024-02-21T13:43:31;22.73;;;9.75;;
46090;SDS011;31826;53.572;10.170;2024-02-21T13:45:58;23.67;;;9.48;;
46090;SDS011;31826;53.572;10.170;2024-02-21T13:48:34;20.90;;;9.73;;
46090;SDS011;31826;53.572;10.170;2024-02-21T13:51:00;27.75;;;9.55;;
46090;SDS011;31826;53.572;10.170;2024-02-21T13:53:27;24.02;;;9.38;;
46090;SDS011;31826;53.572;10.170;2024-02-21T13:55:53;21.63;;;10.00;;
46090;SDS011;31826;53.572;10.170;2024-02-21T13:58:19;24.05;;;9.43;;
46090;SDS011;31826;53.572;10.170;2024-02-21T14:00:45;20.58;;;9.18;;
46090;SDS011;31826;53.572;10.170;2024-02-21T14:03:10;22.42;;;9.48;;
46090;SDS011;31826;53.572;10.170;2024-02-21T14:05:36;19.30;;;9.60;;
46090;SDS011;31826;53.572;10.170;2024-02-21T14:08:02;21.10;;;9.93;;
46090;SDS011;31826;53.572;10.170;2024-02-21T14:10:28;25.88;;;9.48;;
46090;SDS011;31826;53.572;10.170;2024-02-21T14:12:53;23.55;;;9.57;;
46090;SDS011;31826;53.572;10.170;2024-02-21T14:15:20;23.35;;;10.13;;